createdAt,value
2019-04-11T00:00:09.434Z,68.55
2019-04-11T00:01:10.109Z,68.03
2019-04-11T00:02:09.424Z,68.10
2019-04-11T00:03:09.424Z,68.42
2019-04-11T00:04:10.153Z,68.10
2019-04-11T00:05:10.554Z,68.10
2019-04-11T00:06:09.647Z,68.24
2019-04-11T00:07:09.373Z,68.55
2019-04-11T00:08:10.134Z,69.18
2019-04-11T00:09:10.237Z,68.87
2019-04-11T00:10:10.278Z,69.81
2019-04-11T00:11:09.500Z,69.59
2019-04-11T00:12:10.209Z,69.59
2019-04-11T00:13:18.870Z,69.49
2019-04-11T00:14:10.285Z,70.32
2019-04-11T00:15:10.390Z,70.22
2019-04-11T00:16:09.256Z,69.59
2019-04-11T00:17:09.980Z,69.59
2019-04-11T00:18:10.321Z,69.70
2019-04-11T00:19:09.452Z,69.81
2019-04-11T00:20:09.688Z,69.59
2019-04-11T00:21:09.206Z,70.01
2019-04-11T00:22:09.197Z,69.94
2019-04-11T00:23:10.134Z,70.78
2019-04-11T00:24:10.321Z,70.84
2019-04-11T00:25:09.485Z,70.78
2019-04-11T00:26:09.151Z,71.26
2019-04-11T00:27:09.161Z,70.78
2019-04-11T00:28:09.859Z,70.78
2019-04-11T00:29:10.093Z,70.88
2019-04-11T00:30:10.116Z,71.19
2019-04-11T00:31:09.117Z,71.71
2019-04-11T00:32:10.656Z,72.02
2019-04-11T00:33:09.821Z,72.34
2019-04-11T00:34:09.071Z,72.47
2019-04-11T00:35:09.258Z,72.89
2019-04-11T00:36:10.080Z,72.55
2019-04-11T00:37:09.076Z,72.58
2019-04-11T00:38:09.816Z,72.58
2019-04-11T00:39:09.026Z,72.68
2019-04-11T00:40:09.079Z,72.58
2019-04-11T00:41:09.980Z,73.00
2019-04-11T00:42:08.983Z,73.00
2019-04-11T00:43:09.421Z,73.41
2019-04-11T00:44:08.952Z,73.10
2019-04-11T00:45:09.567Z,73.00
2019-04-11T00:46:09.922Z,72.89
2019-04-11T00:47:08.966Z,73.17
2019-04-11T00:48:09.244Z,73.07
2019-04-11T00:49:08.909Z,73.07
2019-04-11T00:50:08.902Z,72.55
2019-04-11T00:51:09.836Z,73.07
2019-04-11T00:52:08.878Z,72.96
2019-04-11T00:53:09.783Z,73.21
2019-04-11T00:54:08.875Z,73.72
2019-04-11T00:55:08.852Z,73.83
2019-04-11T00:56:09.755Z,73.83
2019-04-11T00:57:08.829Z,74.01
2019-04-11T00:58:09.646Z,74.04
2019-04-11T00:59:09.825Z,73.52
2019-04-11T01:00:09.103Z,74.15
2019-04-11T01:01:09.367Z,74.25
2019-04-11T01:02:09.395Z,74.66
2019-04-11T01:03:09.721Z,74.56
2019-04-11T01:04:09.668Z,74.60
2019-04-11T01:05:09.597Z,74.91
2019-04-11T01:06:09.974Z,75.53
2019-04-11T01:07:08.904Z,75.43
2019-04-11T01:08:08.704Z,75.60
2019-04-11T01:09:10.005Z,75.63
2019-04-11T01:10:09.745Z,75.43
2019-04-11T01:11:09.811Z,75.95
2019-04-11T01:12:08.655Z,75.95
2019-04-11T01:13:09.224Z,75.92
2019-04-11T01:14:09.764Z,75.60
2019-04-11T01:15:08.641Z,75.40
2019-04-11T01:16:09.115Z,75.08
2019-04-11T01:17:09.431Z,76.16
2019-04-11T01:18:09.700Z,75.50
2019-04-11T01:19:08.786Z,76.06
2019-04-11T01:20:08.565Z,75.63
2019-04-11T01:21:08.592Z,75.74
2019-04-11T01:22:09.701Z,76.06
2019-04-11T01:23:08.947Z,75.63
2019-04-11T01:24:09.298Z,75.85
2019-04-11T01:25:08.522Z,75.53
2019-04-11T01:26:08.743Z,76.79
2019-04-11T01:27:09.731Z,75.60
2019-04-11T01:28:08.514Z,76.02
2019-04-11T01:29:09.256Z,75.92
2019-04-11T01:30:08.464Z,75.81
2019-04-11T01:31:09.471Z,75.92
2019-04-11T01:32:08.465Z,76.12
2019-04-11T01:33:08.438Z,76.16
2019-04-11T01:34:08.640Z,76.47
2019-04-11T01:35:08.919Z,76.47
2019-04-11T01:36:08.910Z,77.34
2019-04-11T01:37:09.244Z,77.62
2019-04-11T01:38:08.383Z,77.97
2019-04-11T01:39:08.519Z,77.55
2019-04-11T01:40:09.687Z,78.35
2019-04-11T01:41:08.383Z,78.18
2019-04-11T01:42:09.125Z,78.18
2019-04-11T01:43:08.347Z,78.28
2019-04-11T01:44:08.941Z,78.07
2019-04-11T01:45:09.409Z,78.49
2019-04-11T01:46:08.347Z,78.28
2019-04-11T01:47:08.738Z,78.70
2019-04-11T01:48:09.102Z,78.35
2019-04-11T01:49:08.266Z,77.97
2019-04-11T01:50:08.519Z,78.14
2019-04-11T01:51:09.605Z,77.83
2019-04-11T01:52:08.228Z,77.83
2019-04-11T01:53:08.932Z,77.94
2019-04-11T01:54:08.199Z,77.72
2019-04-11T01:55:08.319Z,78.04
2019-04-11T01:56:09.266Z,78.35
2019-04-11T01:57:08.177Z,78.35
2019-04-11T01:58:08.674Z,78.35
2019-04-11T01:59:08.156Z,78.25
2019-04-11T02:00:09.482Z,78.21
2019-04-11T02:01:08.385Z,77.94
2019-04-11T02:02:08.111Z,78.04
2019-04-11T02:03:08.846Z,78.25
2019-04-11T02:04:08.091Z,78.63
2019-04-11T02:05:08.403Z,78.00
2019-04-11T02:06:08.082Z,78.25
2019-04-11T02:07:08.079Z,78.66
2019-04-11T02:08:09.152Z,79.29
2019-04-11T02:09:08.147Z,78.87
2019-04-11T02:10:08.540Z,80.13
2019-04-11T02:11:08.245Z,79.50
2019-04-11T02:12:08.002Z,80.23
2019-04-11T02:13:08.012Z,80.09
2019-04-11T02:14:15.051Z,79.15
2019-04-11T02:15:10.185Z,78.97
2019-04-11T02:16:08.491Z,80.02
2019-04-11T02:17:08.528Z,80.02
2019-04-11T02:18:07.958Z,80.02
2019-04-11T02:19:08.007Z,79.91
2019-04-11T02:20:09.029Z,80.47
2019-04-11T02:21:07.929Z,80.47
2019-04-11T02:22:08.905Z,80.58
2019-04-11T02:23:07.888Z,80.27
2019-04-11T02:24:07.910Z,80.47
2019-04-11T02:25:08.124Z,80.27
2019-04-11T02:26:09.919Z,80.89
2019-04-11T02:27:08.545Z,81.41
2019-04-11T02:28:08.572Z,80.99
2019-04-11T02:29:08.940Z,81.10
2019-04-11T02:30:08.806Z,81.73
2019-04-11T02:31:10.139Z,81.93
2019-04-11T02:32:09.677Z,81.62
2019-04-11T02:33:10.000Z,82.04
2019-04-11T02:34:08.673Z,82.25
2019-04-11T02:35:08.677Z,82.14
2019-04-11T02:36:09.528Z,82.25
2019-04-11T02:37:09.280Z,82.35
2019-04-11T02:38:09.515Z,82.14
2019-04-11T02:39:12.112Z,82.35
2019-04-11T02:40:08.964Z,81.73
2019-04-11T02:41:08.570Z,82.46
2019-04-11T02:42:08.970Z,82.67
2019-04-11T02:43:09.322Z,83.08
2019-04-11T02:44:27.196Z,82.98
2019-04-11T02:45:22.489Z,83.18
2019-04-11T02:46:17.579Z,82.98
2019-04-11T02:47:15.803Z,82.77
2019-04-11T02:48:11.244Z,82.31
2019-04-11T02:49:08.127Z,82.25
2019-04-11T02:50:08.300Z,82.31
2019-04-11T02:51:07.704Z,82.35
2019-04-11T02:52:09.331Z,82.42
2019-04-11T02:53:09.255Z,82.10
2019-04-11T02:54:07.738Z,82.21
2019-04-11T02:55:10.097Z,82.42
2019-04-11T02:56:09.270Z,82.56
2019-04-11T02:57:07.923Z,82.31
2019-04-11T02:58:08.016Z,82.67
2019-04-11T02:59:09.007Z,82.84
2019-04-11T03:00:08.529Z,82.42
2019-04-11T03:01:09.661Z,82.84
2019-04-11T03:02:09.033Z,82.63
2019-04-11T03:03:08.483Z,83.04
2019-04-11T03:04:07.637Z,83.15
2019-04-11T03:05:09.289Z,82.73
2019-04-11T03:06:09.200Z,83.15
2019-04-11T03:07:08.039Z,83.15
2019-04-11T03:08:11.523Z,83.15
2019-04-11T03:09:08.395Z,83.18
2019-04-11T03:10:09.876Z,83.15
2019-04-11T03:11:08.213Z,83.25
2019-04-11T03:12:08.998Z,83.61
2019-04-11T03:13:08.397Z,83.67
2019-04-11T03:14:07.719Z,83.88
2019-04-11T03:15:23.961Z,83.67
2019-04-11T03:16:23.539Z,83.47
2019-04-11T03:17:16.965Z,83.36
2019-04-11T03:18:10.015Z,83.25
2019-04-11T03:19:22.563Z,82.94
2019-04-11T03:20:20.999Z,83.04
2019-04-11T03:21:13.798Z,82.90
2019-04-11T03:22:09.831Z,82.73
2019-04-11T03:23:09.863Z,83.01
2019-04-11T03:24:09.153Z,82.80
2019-04-11T03:25:08.479Z,83.11
2019-04-11T03:26:08.083Z,83.01
2019-04-11T03:27:09.262Z,83.11
2019-04-11T03:28:13.393Z,83.42
2019-04-11T03:29:09.132Z,83.57
2019-04-11T03:30:13.748Z,83.78
2019-04-11T03:31:41.660Z,83.42
2019-04-11T03:32:51.349Z,83.98
2019-04-11T03:35:59.968Z,84.16
2019-04-11T03:37:01.033Z,83.95
2019-04-11T03:37:37.988Z,83.95
2019-04-11T03:38:34.185Z,83.74
2019-04-11T03:39:27.728Z,83.57
2019-04-11T03:40:28.239Z,83.95
2019-04-11T03:41:23.577Z,84.16
2019-04-11T03:42:20.610Z,84.26
2019-04-11T03:43:23.056Z,84.57
2019-04-11T03:44:16.728Z,84.26
2019-04-11T03:45:40.102Z,83.98
2019-04-11T03:46:26.600Z,84.47
2019-04-11T03:47:20.617Z,84.57
2019-04-11T03:48:23.685Z,84.72
2019-04-11T03:49:24.058Z,84.09
2019-04-11T03:50:14.976Z,83.95
2019-04-11T03:51:08.836Z,84.47
2019-04-11T03:52:08.698Z,84.57
2019-04-11T03:53:09.361Z,83.53
2019-04-11T03:54:07.564Z,84.36
2019-04-11T03:55:08.654Z,84.26
2019-04-11T03:56:07.673Z,84.36
2019-04-11T03:57:07.834Z,84.16
2019-04-11T03:58:08.571Z,84.57
2019-04-11T03:59:10.311Z,84.72
2019-04-11T04:00:07.840Z,84.78
2019-04-11T04:01:10.572Z,84.57
2019-04-11T04:02:08.011Z,84.57
2019-04-11T04:03:08.941Z,84.67
2019-04-11T04:04:06.847Z,83.95
2019-04-11T04:05:08.865Z,84.36
2019-04-11T04:06:08.752Z,84.36
2019-04-11T04:07:07.317Z,84.05
2019-04-11T04:08:06.808Z,84.57
2019-04-11T04:09:06.741Z,84.26
2019-04-11T04:10:09.173Z,84.36
2019-04-11T04:11:08.367Z,84.78
2019-04-11T04:12:07.175Z,84.99
2019-04-11T04:13:13.282Z,84.99
2019-04-11T04:14:08.209Z,85.51
2019-04-11T04:15:09.080Z,85.61
2019-04-11T04:16:17.654Z,85.30
2019-04-11T04:17:10.087Z,85.10
2019-04-11T04:18:07.960Z,85.41
2019-04-11T04:19:10.688Z,85.10
2019-04-11T04:20:08.771Z,84.88
2019-04-11T04:21:09.193Z,84.88
2019-04-11T04:22:07.255Z,85.51
2019-04-11T04:23:07.610Z,84.78
2019-04-11T04:24:08.508Z,85.61
2019-04-11T04:25:08.122Z,85.41
2019-04-11T04:26:08.483Z,85.61
2019-04-11T04:27:07.674Z,85.51
2019-04-11T04:28:07.454Z,85.82
2019-04-11T04:29:07.504Z,85.72
2019-04-11T04:30:08.431Z,85.41
2019-04-11T04:31:07.479Z,85.41
2019-04-11T04:32:07.856Z,85.72
2019-04-11T04:33:07.155Z,86.35
2019-04-11T04:34:07.264Z,85.51
2019-04-11T04:35:10.175Z,85.51
2019-04-11T04:36:10.097Z,85.76
2019-04-11T04:37:07.901Z,85.72
2019-04-11T04:38:07.406Z,86.35
2019-04-11T04:39:06.435Z,85.61
2019-04-11T04:40:23.843Z,85.93
2019-04-11T04:41:20.024Z,85.61
2019-04-11T04:42:17.401Z,85.58
2019-04-11T04:43:09.622Z,85.26
2019-04-11T04:44:06.585Z,85.51
2019-04-11T04:45:07.913Z,85.82
2019-04-11T04:46:23.518Z,85.93
2019-04-11T04:47:18.045Z,85.61
2019-04-11T04:48:11.537Z,85.51
2019-04-11T04:49:09.014Z,85.47
2019-04-11T04:50:06.526Z,85.10
2019-04-11T04:51:09.163Z,84.84
2019-04-11T04:52:09.499Z,85.10
2019-04-11T04:53:07.350Z,84.78
2019-04-11T04:54:07.976Z,84.99
2019-04-11T04:55:06.317Z,85.30
2019-04-11T04:56:06.767Z,84.88
2019-04-11T04:57:08.572Z,85.41
2019-04-11T04:58:07.222Z,84.78
2019-04-11T04:59:07.085Z,85.05
2019-04-11T05:00:07.137Z,85.36
2019-04-11T05:01:07.009Z,85.47
2019-04-11T05:02:08.224Z,85.47
2019-04-11T05:03:07.764Z,85.26
2019-04-11T05:04:06.818Z,85.58
2019-04-11T05:05:06.404Z,85.68
2019-04-11T05:06:07.625Z,85.36
2019-04-11T05:07:07.331Z,85.26
2019-04-11T05:08:06.338Z,85.47
2019-04-11T05:09:06.579Z,84.84
2019-04-11T05:10:08.311Z,85.58
2019-04-11T05:11:07.510Z,84.95
2019-04-11T05:12:06.147Z,84.70
2019-04-11T05:13:07.624Z,85.47
2019-04-11T05:14:07.218Z,84.84
2019-04-11T05:15:06.043Z,84.70
2019-04-11T05:16:16.095Z,84.18
2019-04-11T05:17:07.018Z,84.08
2019-04-11T05:18:06.279Z,84.18
2019-04-11T05:19:06.595Z,84.39
2019-04-11T05:20:06.941Z,84.18
2019-04-11T05:21:06.027Z,83.76
2019-04-11T05:22:06.514Z,83.83
2019-04-11T05:23:06.335Z,83.94
2019-04-11T05:24:06.250Z,83.42
2019-04-11T05:25:06.723Z,82.96
2019-04-11T05:26:06.846Z,82.65
2019-04-11T05:27:06.248Z,82.75
2019-04-11T05:28:06.518Z,82.23
2019-04-11T05:29:05.898Z,82.23
2019-04-11T05:30:06.976Z,82.20
2019-04-11T05:31:06.135Z,81.46
2019-04-11T05:32:05.863Z,81.12
2019-04-11T05:33:06.037Z,80.91
2019-04-11T05:34:05.848Z,80.08
2019-04-11T05:35:06.912Z,80.08
2019-04-11T05:36:06.085Z,80.08
2019-04-11T05:37:06.892Z,80.08
2019-04-11T05:38:05.815Z,80.29
2019-04-11T05:39:06.638Z,80.04
2019-04-11T05:40:05.766Z,79.83
2019-04-11T05:41:09.664Z,79.83
2019-04-11T05:42:07.154Z,79.94
2019-04-11T05:43:06.007Z,79.62
2019-04-11T05:44:09.962Z,79.52
2019-04-11T05:45:11.657Z,78.55
2019-04-11T05:46:23.062Z,78.34
2019-04-11T05:47:06.898Z,77.89
2019-04-11T05:48:05.681Z,78.09
2019-04-11T05:49:05.679Z,78.03
2019-04-11T05:50:09.232Z,78.20
2019-04-11T05:51:06.887Z,77.78
2019-04-11T05:52:06.073Z,77.68
2019-04-11T05:53:05.817Z,77.85
2019-04-11T05:54:07.576Z,76.99
2019-04-11T05:55:08.267Z,76.43
2019-04-11T05:56:07.098Z,74.57
2019-04-11T05:57:05.571Z,74.43
2019-04-11T05:58:08.530Z,73.60
2019-04-11T05:59:07.390Z,72.84
2019-04-11T06:00:05.629Z,72.74
2019-04-11T06:01:05.538Z,71.88
2019-04-11T06:02:07.682Z,69.98
2019-04-11T06:03:05.841Z,70.36
2019-04-11T06:04:05.942Z,69.32
2019-04-11T06:05:06.759Z,69.95
2019-04-11T06:06:06.547Z,68.57
2019-04-11T06:07:07.878Z,68.02
2019-04-11T06:08:06.394Z,67.40
2019-04-11T06:09:07.730Z,66.54
2019-04-11T06:10:08.484Z,66.10
2019-04-11T06:11:06.253Z,65.69
2019-04-11T06:12:05.428Z,65.79
2019-04-11T06:13:05.406Z,65.82
2019-04-11T06:14:07.042Z,66.41
2019-04-11T06:15:05.960Z,65.69
2019-04-11T06:16:06.352Z,66.10
2019-04-11T06:17:05.353Z,64.52
2019-04-11T06:18:05.350Z,63.79
2019-04-11T06:19:06.015Z,63.49
2019-04-11T06:20:06.123Z,65.14
2019-04-11T06:21:05.305Z,63.64
2019-04-11T06:22:06.557Z,63.32
2019-04-11T06:23:06.577Z,62.40
2019-04-11T06:24:05.296Z,62.81
2019-04-11T06:25:06.235Z,63.09
2019-04-11T06:26:06.660Z,61.78
2019-04-11T06:27:06.355Z,62.08
2019-04-11T06:28:06.216Z,62.06
2019-04-11T06:29:15.446Z,61.00
2019-04-11T06:30:07.392Z,61.31
2019-04-11T06:31:06.062Z,60.87
2019-04-11T06:32:05.683Z,60.35
2019-04-11T06:33:05.184Z,60.61
2019-04-11T06:34:05.178Z,60.95
2019-04-11T06:35:06.113Z,61.19
2019-04-11T06:36:05.167Z,61.36
2019-04-11T06:37:05.631Z,61.75
2019-04-11T06:38:06.065Z,61.36
2019-04-11T06:39:05.217Z,60.17
2019-04-11T06:40:05.103Z,60.85
2019-04-11T06:41:06.172Z,61.78
2019-04-11T06:42:05.948Z,62.04
2019-04-11T06:43:05.089Z,63.90
2019-04-11T06:44:05.074Z,63.25
2019-04-11T06:45:06.055Z,61.83
2019-04-11T06:46:05.061Z,61.80
2019-04-11T06:47:05.376Z,61.78
2019-04-11T06:48:05.257Z,61.05
2019-04-11T06:49:05.003Z,60.31
2019-04-11T06:50:05.020Z,59.69
2019-04-11T06:51:06.000Z,59.86
2019-04-11T06:52:04.971Z,60.28
2019-04-11T06:53:04.966Z,61.57
2019-04-11T06:54:04.946Z,61.75
2019-04-11T06:55:04.966Z,59.89
2019-04-11T06:56:04.921Z,60.21
2019-04-11T06:57:05.526Z,60.28
2019-04-11T06:58:04.907Z,59.14
2019-04-11T06:59:04.893Z,58.78
2019-04-11T07:00:05.227Z,57.75
2019-04-11T07:01:05.482Z,57.37
2019-04-11T07:02:13.373Z,59.63
2019-04-11T07:03:17.470Z,58.91
2019-04-11T07:04:06.018Z,58.68
2019-04-11T07:05:04.846Z,58.14
2019-04-11T07:06:05.037Z,58.42
2019-04-11T07:07:04.807Z,56.34
2019-04-11T07:08:05.526Z,55.74
2019-04-11T07:09:05.524Z,58.16
2019-04-11T07:10:06.079Z,57.44
2019-04-11T07:11:04.763Z,57.24
2019-04-11T07:12:05.598Z,58.50
2019-04-11T07:13:05.579Z,58.22
2019-04-11T07:14:04.722Z,59.09
2019-04-11T07:15:04.736Z,58.81
2019-04-11T07:16:04.775Z,57.86
2019-04-11T07:17:07.493Z,57.42
2019-04-11T07:18:07.371Z,56.54
2019-04-11T07:19:04.940Z,56.13
2019-04-11T07:20:04.672Z,56.21
2019-04-11T07:21:04.656Z,55.05
2019-04-11T07:22:04.661Z,53.92
2019-04-11T07:23:05.811Z,54.53
2019-04-11T07:24:05.365Z,54.92
2019-04-11T07:25:04.620Z,54.43
2019-04-11T07:26:04.600Z,54.66
2019-04-11T07:27:04.605Z,54.87
2019-04-11T07:28:05.611Z,54.66
2019-04-11T07:29:04.680Z,56.05
2019-04-11T07:30:05.244Z,56.87
2019-04-11T07:31:04.581Z,56.57
2019-04-11T07:32:04.871Z,56.95
2019-04-11T07:33:04.541Z,55.36
2019-04-11T07:34:04.500Z,56.38
2019-04-11T07:35:04.875Z,56.72
2019-04-11T07:36:04.484Z,56.18
2019-04-11T07:37:04.688Z,54.95
2019-04-11T07:38:05.019Z,54.46
2019-04-11T07:39:05.566Z,54.25
2019-04-11T07:40:05.871Z,54.74
2019-04-11T07:41:04.423Z,54.82
2019-04-11T07:42:04.701Z,52.44
2019-04-11T07:43:08.829Z,53.20
2019-04-11T07:44:06.405Z,52.69
2019-04-11T07:45:04.398Z,52.69
2019-04-11T07:46:04.667Z,52.48
2019-04-11T07:47:13.686Z,54.56
2019-04-11T07:48:07.107Z,53.43
2019-04-11T07:49:04.332Z,52.97
2019-04-11T07:50:04.334Z,53.72
2019-04-11T07:51:04.305Z,51.72
2019-04-11T07:52:04.655Z,53.15
2019-04-11T07:53:04.994Z,52.95
2019-04-11T07:54:04.834Z,51.51
2019-04-11T07:55:04.667Z,52.84
2019-04-11T07:56:05.092Z,51.59
2019-04-11T07:57:04.316Z,51.34
2019-04-11T07:58:04.374Z,49.62
2019-04-11T07:59:05.105Z,51.26
2019-04-11T08:00:04.217Z,50.95
2019-04-11T08:01:04.199Z,52.75
2019-04-11T08:02:04.179Z,50.70
2019-04-11T08:03:04.571Z,49.18
2019-04-11T08:04:04.158Z,50.80
2019-04-11T08:05:04.501Z,51.15
2019-04-11T08:06:05.195Z,52.39
2019-04-11T08:07:04.438Z,51.05
2019-04-11T08:08:06.270Z,50.52
2019-04-11T08:09:05.031Z,50.95
2019-04-11T08:10:04.114Z,50.59
2019-04-11T08:11:04.088Z,51.62
2019-04-11T08:12:04.552Z,51.57
2019-04-11T08:13:04.059Z,49.22
2019-04-11T08:14:04.267Z,50.23
2019-04-11T08:15:04.899Z,51.69
2019-04-11T08:16:04.369Z,50.80
2019-04-11T08:17:04.019Z,50.18
2019-04-11T08:18:04.083Z,52.00
2019-04-11T08:19:04.005Z,49.80
2019-04-11T08:20:05.001Z,50.01
2019-04-11T08:21:03.992Z,51.08
2019-04-11T08:22:03.957Z,50.52
2019-04-11T08:23:03.961Z,49.67
2019-04-11T08:24:04.463Z,49.96
2019-04-11T08:25:05.032Z,49.63
2019-04-11T08:26:04.056Z,48.15
2019-04-11T08:27:03.971Z,48.50
2019-04-11T08:28:06.107Z,49.30
2019-04-11T08:29:09.006Z,47.53
2019-04-11T08:30:04.867Z,48.17
2019-04-11T08:31:03.876Z,47.53
2019-04-11T08:32:04.635Z,48.61
2019-04-11T08:33:04.515Z,46.43
2019-04-11T08:34:04.878Z,47.06
2019-04-11T08:35:04.003Z,46.90
2019-04-11T08:36:03.813Z,47.45
2019-04-11T08:37:03.790Z,47.85
2019-04-11T08:38:04.526Z,47.82
2019-04-11T08:39:04.771Z,48.57
2019-04-11T08:40:03.957Z,46.18
2019-04-11T08:41:03.983Z,44.49
2019-04-11T08:42:03.729Z,47.14
2019-04-11T08:43:04.674Z,46.38
2019-04-11T08:44:03.714Z,44.96
2019-04-11T08:45:04.077Z,44.96
2019-04-11T08:46:04.669Z,43.75
2019-04-11T08:47:04.413Z,46.63
2019-04-11T08:48:04.494Z,47.14
2019-04-11T08:49:03.735Z,45.20
2019-04-11T08:50:03.923Z,44.90
2019-04-11T08:51:03.647Z,45.73
2019-04-11T08:52:03.617Z,48.14
2019-04-11T08:53:04.574Z,45.28
2019-04-11T08:54:04.842Z,46.61
2019-04-11T08:55:04.203Z,45.06
2019-04-11T08:56:04.341Z,44.93
2019-04-11T08:57:03.564Z,46.34
2019-04-11T08:58:04.423Z,44.10
2019-04-11T08:59:03.546Z,44.57
2019-04-11T09:00:04.149Z,42.25
2019-04-11T09:01:03.550Z,44.08
2019-04-11T09:02:04.648Z,44.49
2019-04-11T09:03:03.503Z,42.55
2019-04-11T09:04:07.316Z,43.49
2019-04-11T09:05:12.022Z,42.55
2019-04-11T09:06:04.484Z,42.55
2019-04-11T09:07:03.459Z,41.66
2019-04-11T09:08:03.442Z,41.75
2019-04-11T09:09:03.455Z,42.98
2019-04-11T09:10:04.109Z,41.78
2019-04-11T09:11:04.486Z,43.18
2019-04-11T09:12:04.431Z,41.96
2019-04-11T09:13:03.391Z,43.16
2019-04-11T09:14:03.926Z,42.21
2019-04-11T09:15:04.438Z,42.71
2019-04-11T09:16:03.528Z,42.82
2019-04-11T09:17:03.856Z,45.10
2019-04-11T09:18:06.360Z,43.85
2019-04-11T09:19:04.331Z,42.49
2019-04-11T09:20:03.360Z,41.88
2019-04-11T09:21:04.298Z,41.86
2019-04-11T09:22:03.287Z,42.68
2019-04-11T09:23:03.779Z,40.78
2019-04-11T09:24:03.270Z,42.22
2019-04-11T09:25:03.445Z,41.73
2019-04-11T09:26:03.613Z,42.82
2019-04-11T09:27:04.443Z,43.51
2019-04-11T09:28:03.242Z,42.08
2019-04-11T09:29:03.961Z,41.53
2019-04-11T09:30:04.325Z,41.96
2019-04-11T09:31:05.170Z,42.92
2019-04-11T09:32:04.304Z,43.00
2019-04-11T09:33:03.173Z,43.67
2019-04-11T09:34:03.725Z,43.30
2019-04-11T09:35:03.146Z,42.90
2019-04-11T09:36:03.835Z,44.67
2019-04-11T09:37:03.259Z,46.63
2019-04-11T09:38:04.266Z,44.55
2019-04-11T09:39:03.111Z,43.71
2019-04-11T09:40:03.744Z,43.16
2019-04-11T09:41:03.984Z,45.39
2019-04-11T09:42:03.115Z,45.43
2019-04-11T09:43:03.873Z,44.02
2019-04-11T09:44:03.043Z,40.74
2019-04-11T09:45:03.558Z,42.90
2019-04-11T09:46:03.020Z,42.98
2019-04-11T09:47:03.424Z,42.57
2019-04-11T09:48:12.613Z,42.88
2019-04-11T09:49:04.491Z,42.68
2019-04-11T09:50:04.236Z,42.47
2019-04-11T09:51:03.025Z,42.43
2019-04-11T09:52:02.976Z,42.59
2019-04-11T09:53:03.638Z,40.16
2019-04-11T09:54:03.591Z,40.60
2019-04-11T09:55:02.922Z,43.04
2019-04-11T09:56:02.913Z,44.02
2019-04-11T09:57:02.909Z,44.96
2019-04-11T09:58:03.062Z,45.32
2019-04-11T09:59:02.884Z,44.98
2019-04-11T10:00:03.843Z,43.84
2019-04-11T10:01:03.766Z,44.96
2019-04-11T10:02:02.862Z,47.66
2019-04-11T10:03:02.945Z,46.94
2019-04-11T10:04:03.682Z,48.07
2019-04-11T10:05:02.868Z,47.68
2019-04-11T10:06:03.032Z,46.34
2019-04-11T10:07:03.438Z,44.63
2019-04-11T10:08:02.779Z,41.72
2019-04-11T10:09:03.776Z,42.33
2019-04-11T10:10:02.786Z,44.31
2019-04-11T10:11:03.721Z,45.57
2019-04-11T10:12:02.750Z,46.03
2019-04-11T10:13:02.730Z,47.58
2019-04-11T10:14:02.715Z,47.81
2019-04-11T10:15:03.147Z,48.14
2019-04-11T10:16:03.703Z,48.06
2019-04-11T10:17:02.691Z,48.31
2019-04-11T10:18:03.141Z,44.26
2019-04-11T10:19:03.385Z,43.37
2019-04-11T10:20:02.939Z,43.08
2019-04-11T10:21:02.634Z,43.38
2019-04-11T10:22:02.850Z,43.71
2019-04-11T10:23:03.309Z,43.57
2019-04-11T10:24:02.599Z,45.22
2019-04-11T10:25:03.232Z,43.30
2019-04-11T10:26:03.550Z,42.43
2019-04-11T10:27:02.708Z,41.05
2019-04-11T10:28:02.822Z,41.66
2019-04-11T10:29:02.540Z,42.22
2019-04-11T10:30:02.535Z,43.51
2019-04-11T10:31:02.519Z,43.38
2019-04-11T10:32:03.270Z,43.22
2019-04-11T10:33:02.495Z,44.90
2019-04-11T10:34:03.266Z,46.44
2019-04-11T10:35:02.476Z,46.45
2019-04-11T10:36:03.016Z,45.74
2019-04-11T10:37:03.502Z,46.17
2019-04-11T10:38:02.452Z,46.52
2019-04-11T10:39:02.772Z,47.75
2019-04-11T10:40:02.427Z,47.13
2019-04-11T10:41:02.441Z,47.24
2019-04-11T10:42:02.412Z,48.59
2019-04-11T10:43:02.552Z,48.80
2019-04-11T10:44:02.432Z,47.56
2019-04-11T10:45:02.741Z,47.77
2019-04-11T10:46:02.835Z,48.21
2019-04-11T10:47:02.355Z,48.10
2019-04-11T10:48:03.303Z,47.41
2019-04-11T10:49:03.411Z,48.54
2019-04-11T10:50:03.128Z,47.51
2019-04-11T10:51:02.359Z,49.27
2019-04-11T10:52:02.485Z,48.38
2019-04-11T10:53:02.693Z,47.45
2019-04-11T10:54:04.143Z,47.84
2019-04-11T10:55:03.092Z,47.33
2019-04-11T10:56:02.249Z,47.63
2019-04-11T10:57:03.369Z,47.42
2019-04-11T10:58:02.631Z,47.63
2019-04-11T10:59:02.207Z,48.25
2019-04-11T11:00:03.133Z,45.48
2019-04-11T11:01:02.188Z,45.58
2019-04-11T11:02:02.248Z,46.91
2019-04-11T11:03:02.173Z,47.71
2019-04-11T11:04:03.300Z,45.87
2019-04-11T11:05:03.160Z,46.89
2019-04-11T11:06:03.161Z,46.17
2019-04-11T11:07:02.406Z,45.56
2019-04-11T11:08:02.133Z,45.25
2019-04-11T11:09:02.104Z,45.56
2019-04-11T11:10:03.141Z,45.15
2019-04-11T11:11:02.076Z,44.45
2019-04-11T11:12:03.024Z,45.17
2019-04-11T11:13:02.079Z,45.37
2019-04-11T11:14:02.567Z,46.48
2019-04-11T11:15:03.147Z,45.76
2019-04-11T11:16:02.296Z,44.65
2019-04-11T11:17:02.391Z,44.56
2019-04-11T11:18:31.878Z,44.94
2019-04-11T11:19:29.934Z,43.63
2019-04-11T11:20:12.050Z,43.22
2019-04-11T11:21:05.489Z,43.73
2019-04-11T11:22:03.511Z,44.64
2019-04-11T11:23:05.791Z,42.69
2019-04-11T11:24:05.408Z,41.95
2019-04-11T11:25:02.930Z,42.36
2019-04-11T11:26:02.808Z,43.59
2019-04-11T11:27:04.084Z,42.38
2019-04-11T11:28:03.556Z,41.53
2019-04-11T11:29:07.107Z,41.05
2019-04-11T11:30:04.410Z,42.48
2019-04-11T11:31:03.134Z,40.73
2019-04-11T11:32:02.986Z,40.82
2019-04-11T11:33:02.264Z,40.82
2019-04-11T11:34:02.887Z,40.41
2019-04-11T11:35:03.304Z,40.08
2019-04-11T11:36:03.553Z,39.98
2019-04-11T11:37:02.795Z,39.26
2019-04-11T11:38:02.002Z,39.98
2019-04-11T11:39:02.502Z,39.59
2019-04-11T11:40:04.922Z,40.20
2019-04-11T11:41:03.819Z,39.98
2019-04-11T11:42:02.117Z,38.87
2019-04-11T11:43:03.052Z,40.61
2019-04-11T11:44:01.719Z,42.36
2019-04-11T11:45:03.806Z,40.90
2019-04-11T11:46:03.031Z,43.22
2019-04-11T11:47:03.433Z,39.84
2019-04-11T11:48:01.684Z,38.71
2019-04-11T11:49:02.782Z,37.81
2019-04-11T11:50:03.321Z,39.35
2019-04-11T11:51:01.644Z,40.06
2019-04-11T11:52:03.007Z,38.40
2019-04-11T11:53:04.852Z,39.96
2019-04-11T11:54:02.949Z,38.73
2019-04-11T11:55:02.191Z,37.50
2019-04-11T11:56:02.114Z,39.02
2019-04-11T11:57:02.370Z,37.67
2019-04-11T11:58:01.993Z,38.47
2019-04-11T11:59:02.752Z,38.51
2019-04-11T12:00:02.880Z,39.12
2019-04-11T12:01:05.888Z,40.23
2019-04-11T12:02:02.511Z,40.93
2019-04-11T12:03:02.373Z,38.27
2019-04-11T12:04:03.125Z,38.88
2019-04-11T12:05:02.583Z,38.06
2019-04-11T12:06:01.481Z,37.67
2019-04-11T12:07:03.731Z,38.18
2019-04-11T12:08:01.456Z,37.28
2019-04-11T12:09:02.501Z,39.92
2019-04-11T12:10:02.752Z,37.45
2019-04-11T12:11:01.892Z,38.18
2019-04-11T12:12:02.327Z,38.49
2019-04-11T12:13:05.848Z,37.59
2019-04-11T12:14:02.376Z,39.43
2019-04-11T12:15:01.513Z,37.16
2019-04-11T12:16:01.599Z,37.77
2019-04-11T12:17:05.071Z,37.24
2019-04-11T12:18:01.770Z,40.01
2019-04-11T12:19:02.525Z,38.78
2019-04-11T12:20:06.450Z,38.59
2019-04-11T12:21:03.182Z,39.43
2019-04-11T12:22:02.256Z,39.02
2019-04-11T12:23:01.301Z,39.19
2019-04-11T12:24:06.122Z,38.27
2019-04-11T12:25:02.966Z,37.35
2019-04-11T12:26:01.250Z,37.95
2019-04-11T12:27:02.281Z,37.55
2019-04-11T12:28:02.446Z,37.43
2019-04-11T12:29:01.743Z,37.23
2019-04-11T12:30:03.212Z,36.80
2019-04-11T12:31:03.728Z,36.08
2019-04-11T12:32:01.203Z,34.94
2019-04-11T12:33:01.434Z,34.69
2019-04-11T12:34:01.684Z,34.91
2019-04-11T12:35:02.177Z,33.95
2019-04-11T12:36:01.322Z,35.85
2019-04-11T12:37:02.173Z,34.22
2019-04-11T12:38:01.116Z,34.95
2019-04-11T12:39:01.122Z,32.80
2019-04-11T12:40:01.090Z,31.68
2019-04-11T12:41:01.073Z,30.42
2019-04-11T12:42:01.068Z,31.54
2019-04-11T12:43:01.050Z,30.52
2019-04-11T12:44:01.067Z,30.33
2019-04-11T12:45:01.035Z,30.90
2019-04-11T12:46:01.028Z,30.41
2019-04-11T12:47:01.008Z,30.64
2019-04-11T12:48:01.002Z,28.99
2019-04-11T12:49:01.004Z,28.81
2019-04-11T12:50:00.979Z,29.57
2019-04-11T12:51:00.967Z,29.80
2019-04-11T12:52:00.959Z,28.41
2019-04-11T12:53:00.942Z,33.19
2019-04-11T12:54:00.950Z,28.88